createdAt,value
2019-01-08T00:00:12.683Z,38.60
2019-01-08T00:02:44.028Z,38.60
2019-01-08T00:05:15.897Z,38.60
2019-01-08T00:07:47.014Z,38.60
2019-01-08T00:10:18.841Z,38.60
2019-01-08T00:12:49.887Z,38.70
2019-01-08T00:15:20.996Z,38.60
2019-01-08T00:17:51.909Z,38.60
2019-01-08T00:20:22.562Z,38.50
2019-01-08T00:22:53.798Z,38.60
2019-01-08T00:25:25.601Z,38.50
2019-01-08T00:27:56.623Z,38.50
2019-01-08T00:30:27.902Z,38.60
2019-01-08T00:33:00.229Z,38.50
2019-01-08T00:35:31.739Z,38.50
2019-01-08T00:38:02.395Z,38.50
2019-01-08T00:40:34.069Z,38.50
2019-01-08T00:43:05.787Z,38.50
2019-01-08T00:45:36.843Z,38.40
2019-01-08T00:48:07.712Z,39.10
2019-01-08T00:50:39.119Z,38.50
2019-01-08T00:53:10.877Z,38.50
2019-01-08T00:55:42.332Z,38.50
2019-01-08T00:58:13.209Z,38.50
2019-01-08T01:00:44.688Z,38.50
2019-01-08T01:03:16.656Z,38.40
2019-01-08T01:05:48.667Z,38.50
2019-01-08T01:08:19.936Z,38.40
2019-01-08T01:10:51.048Z,38.40
2019-01-08T01:13:24.918Z,38.40
2019-01-08T01:15:55.425Z,38.40
2019-01-08T01:18:27.157Z,38.40
2019-01-08T01:20:58.592Z,38.50
2019-01-08T01:23:30.112Z,38.40
2019-01-08T01:26:01.503Z,38.40
2019-01-08T01:28:33.316Z,38.40
2019-01-08T01:31:04.358Z,38.40
2019-01-08T01:33:36.198Z,38.50
2019-01-08T01:36:08.334Z,38.50
2019-01-08T01:38:40.055Z,38.50
2019-01-08T01:41:11.361Z,38.40
2019-01-08T01:43:42.900Z,38.40
2019-01-08T01:46:14.189Z,38.50
2019-01-08T01:48:46.289Z,38.40
2019-01-08T01:51:17.449Z,38.50
2019-01-08T01:53:48.376Z,38.40
2019-01-08T01:56:19.912Z,38.50
2019-01-08T01:58:51.860Z,38.50
2019-01-08T02:01:22.408Z,38.40
2019-01-08T02:03:54.358Z,38.50
2019-01-08T02:06:25.685Z,38.40
2019-01-08T02:08:56.403Z,38.40
2019-01-08T02:11:27.023Z,38.40
2019-01-08T02:13:58.910Z,38.40
2019-01-08T02:16:29.627Z,38.40
2019-01-08T02:19:01.062Z,38.50
2019-01-08T02:21:32.718Z,38.40
2019-01-08T02:24:04.134Z,38.40
2019-01-08T02:26:36.342Z,38.40
2019-01-08T02:29:16.325Z,38.40
2019-01-08T02:31:40.238Z,38.40
2019-01-08T02:34:10.841Z,38.30
2019-01-08T02:36:42.857Z,38.30
2019-01-08T02:39:14.881Z,38.40
2019-01-08T02:41:45.920Z,38.40
2019-01-08T02:44:17.471Z,38.30
2019-01-08T02:46:49.107Z,38.30
2019-01-08T02:49:20.796Z,38.30
2019-01-08T02:51:51.038Z,38.30
2019-01-08T02:54:22.457Z,38.30
2019-01-08T02:56:53.380Z,38.30
2019-01-08T02:59:25.477Z,38.40
2019-01-08T03:01:57.026Z,38.40
2019-01-08T03:04:28.503Z,38.30
2019-01-08T03:06:59.483Z,38.30
2019-01-08T03:09:32.942Z,38.30
2019-01-08T03:12:04.420Z,38.40
2019-01-08T03:14:35.751Z,38.40
2019-01-08T03:17:07.835Z,38.40
2019-01-08T03:19:39.266Z,38.40
2019-01-08T03:22:10.711Z,38.40
2019-01-08T03:24:42.030Z,38.40
2019-01-08T03:27:13.690Z,38.40
2019-01-08T03:29:45.129Z,38.40
2019-01-08T03:32:16.966Z,38.40
2019-01-08T03:34:48.156Z,38.40
2019-01-08T03:37:19.606Z,38.50
2019-01-08T03:39:50.950Z,38.50
2019-01-08T03:42:23.290Z,38.50
2019-01-08T03:44:53.650Z,38.40
2019-01-08T03:47:25.224Z,38.50
2019-01-08T03:49:56.325Z,38.50
2019-01-08T03:52:28.355Z,38.50
2019-01-08T03:54:59.342Z,38.60
2019-01-08T03:57:30.029Z,38.60
2019-01-08T04:00:01.576Z,38.60
2019-01-08T04:02:32.966Z,38.70
2019-01-08T04:05:04.962Z,38.60
2019-01-08T04:07:36.689Z,38.60
2019-01-08T04:10:09.268Z,38.60
2019-01-08T04:12:40.785Z,38.70
2019-01-08T04:15:12.401Z,39.40
2019-01-08T04:17:44.216Z,39.30
2019-01-08T04:20:15.879Z,38.70
2019-01-08T04:22:47.016Z,38.80
2019-01-08T04:25:18.156Z,38.80
2019-01-08T04:27:50.077Z,38.80
2019-01-08T04:30:21.916Z,39.10
2019-01-08T04:32:53.516Z,38.80
2019-01-08T04:35:25.262Z,38.80
2019-01-08T04:37:56.656Z,38.90
2019-01-08T04:40:27.857Z,38.90
2019-01-08T04:42:59.431Z,38.90
2019-01-08T04:45:31.207Z,38.90
2019-01-08T04:48:03.000Z,38.90
2019-01-08T04:50:34.110Z,38.90
2019-01-08T04:53:05.695Z,39.40
2019-01-08T04:55:37.251Z,39.30
2019-01-08T04:58:09.083Z,39.00
2019-01-08T05:00:41.281Z,39.00
2019-01-08T05:03:13.275Z,39.00
2019-01-08T05:05:44.665Z,39.00
2019-01-08T05:08:16.264Z,39.00
2019-01-08T05:10:47.550Z,39.00
2019-01-08T05:13:18.886Z,39.10
2019-01-08T05:15:50.038Z,39.00
2019-01-08T05:18:21.830Z,39.10
2019-01-08T05:20:52.719Z,39.10
2019-01-08T05:23:23.535Z,39.10
2019-01-08T05:25:54.482Z,39.10
2019-01-08T05:28:26.222Z,39.10
2019-01-08T05:30:56.974Z,39.10
2019-01-08T05:33:28.152Z,39.80
2019-01-08T05:35:59.860Z,39.10
2019-01-08T05:38:31.199Z,39.10
2019-01-08T05:41:02.696Z,39.10
2019-01-08T05:43:33.883Z,39.10
2019-01-08T05:46:07.086Z,39.10
2019-01-08T05:48:38.303Z,39.10
2019-01-08T05:51:09.407Z,39.10
2019-01-08T05:53:40.895Z,39.20
2019-01-08T05:56:12.105Z,39.20
2019-01-08T05:58:43.161Z,39.20
2019-01-08T06:01:14.494Z,39.20
2019-01-08T06:04:05.910Z,39.20
2019-01-08T06:06:37.642Z,39.20
2019-01-08T06:09:09.459Z,39.20
2019-01-08T06:11:40.930Z,39.20
2019-01-08T06:14:12.481Z,39.20
2019-01-08T06:16:44.206Z,39.20
2019-01-08T06:19:15.241Z,39.20
2019-01-08T06:21:46.801Z,39.30
2019-01-08T06:24:19.901Z,39.30
2019-01-08T06:26:52.204Z,39.80
2019-01-08T06:29:23.903Z,39.40
2019-01-08T06:31:55.192Z,39.30
2019-01-08T06:34:27.135Z,39.30
2019-01-08T06:36:57.735Z,39.40
2019-01-08T06:39:28.904Z,39.40
2019-01-08T06:42:00.647Z,39.40
2019-01-08T06:44:32.096Z,39.50
2019-01-08T06:47:03.672Z,39.50
2019-01-08T06:49:36.543Z,39.50
2019-01-08T06:52:06.755Z,39.50
2019-01-08T06:54:38.109Z,39.60
2019-01-08T06:57:08.786Z,39.60
2019-01-08T06:59:39.898Z,39.60
2019-01-08T07:02:11.888Z,39.90
2019-01-08T07:04:43.392Z,39.70
2019-01-08T07:07:15.269Z,39.70
2019-01-08T07:09:46.673Z,39.80
2019-01-08T07:12:18.482Z,39.80
2019-01-08T07:14:49.948Z,39.80
2019-01-08T07:17:21.532Z,39.80
2019-01-08T07:19:53.045Z,39.80
2019-01-08T07:22:24.179Z,39.80
2019-01-08T07:24:55.974Z,39.90
2019-01-08T07:27:27.076Z,39.90
2019-01-08T07:29:57.653Z,39.90
2019-01-08T07:32:27.906Z,39.90
2019-01-08T07:34:59.187Z,39.90
2019-01-08T07:37:29.935Z,39.90
2019-01-08T07:40:02.043Z,40.00
2019-01-08T07:42:33.646Z,40.00
2019-01-08T07:45:05.359Z,40.00
2019-01-08T07:47:36.850Z,40.00
2019-01-08T07:50:09.094Z,40.10
2019-01-08T07:52:40.350Z,40.10
2019-01-08T07:55:11.963Z,40.10
2019-01-08T07:57:43.430Z,40.10
2019-01-08T08:00:15.230Z,40.10
2019-01-08T08:02:46.668Z,40.10
2019-01-08T08:05:17.717Z,40.10
2019-01-08T08:07:48.219Z,40.20
2019-01-08T08:10:19.349Z,40.40
2019-01-08T08:12:50.598Z,40.30
2019-01-08T08:15:21.878Z,40.30
2019-01-08T08:17:53.111Z,40.30
2019-01-08T08:20:24.893Z,40.30
2019-01-08T08:22:56.524Z,40.40
2019-01-08T08:25:29.124Z,40.40
2019-01-08T08:28:00.541Z,40.40
2019-01-08T08:30:32.103Z,40.40
2019-01-08T08:33:03.118Z,40.40
2019-01-08T08:35:34.485Z,40.50
2019-01-08T08:38:05.816Z,40.50
2019-01-08T08:40:36.124Z,40.50
2019-01-08T08:43:07.628Z,40.50
2019-01-08T08:45:41.757Z,40.50
2019-01-08T08:48:13.608Z,40.50
2019-01-08T08:50:44.376Z,40.50
2019-01-08T08:53:16.303Z,40.50
2019-01-08T08:55:47.862Z,40.60
2019-01-08T08:58:19.187Z,40.70
2019-01-08T09:00:50.082Z,40.70
2019-01-08T09:03:21.856Z,40.70
2019-01-08T09:05:52.587Z,40.80
2019-01-08T09:08:22.932Z,40.80
2019-01-08T09:10:54.453Z,40.80
2019-01-08T09:13:25.137Z,40.90
2019-01-08T09:15:57.150Z,41.00
2019-01-08T09:18:30.703Z,41.10
2019-01-08T09:21:01.561Z,41.20
2019-01-08T09:23:32.369Z,41.20
2019-01-08T09:26:03.707Z,41.40
2019-01-08T09:28:34.895Z,41.50
2019-01-08T09:31:06.165Z,41.60
2019-01-08T09:33:38.228Z,41.70
2019-01-08T09:36:08.881Z,41.70
2019-01-08T09:38:40.071Z,41.80
2019-01-08T09:41:10.957Z,41.90
2019-01-08T09:43:42.708Z,42.60
2019-01-08T09:46:14.141Z,42.10
2019-01-08T09:48:45.819Z,42.20
2019-01-08T09:51:17.083Z,42.30
2019-01-08T09:53:47.409Z,42.50
2019-01-08T09:56:19.878Z,42.60
2019-01-08T09:58:50.593Z,42.70
2019-01-08T10:01:24.022Z,42.80
2019-01-08T10:03:54.315Z,42.90
2019-01-08T10:06:25.891Z,43.00
2019-01-08T10:08:57.538Z,43.10
2019-01-08T10:11:28.695Z,43.80
2019-01-08T10:14:01.178Z,42.90
2019-01-08T10:16:32.368Z,43.30
2019-01-08T10:19:04.240Z,43.40
2019-01-08T10:21:34.734Z,43.50
2019-01-08T10:24:06.045Z,43.60
2019-01-08T10:26:37.743Z,43.60
2019-01-08T10:29:09.004Z,43.70
2019-01-08T10:31:40.561Z,43.80
2019-01-08T10:34:12.318Z,43.80
2019-01-08T10:36:44.011Z,44.00
2019-01-08T10:39:15.377Z,44.00
2019-01-08T10:41:46.765Z,44.00
2019-01-08T10:44:18.554Z,44.10
2019-01-08T10:46:49.459Z,44.20
2019-01-08T10:49:20.932Z,44.20
2019-01-08T10:51:52.392Z,44.20
2019-01-08T10:54:23.919Z,44.30
2019-01-08T10:56:54.662Z,44.40
2019-01-08T10:59:26.008Z,44.40
2019-01-08T11:01:56.726Z,44.40
2019-01-08T11:04:27.200Z,44.40
2019-01-08T11:06:58.218Z,44.50
2019-01-08T11:09:30.138Z,44.50
2019-01-08T11:12:01.448Z,44.60
2019-01-08T11:14:33.211Z,44.60
2019-01-08T11:17:04.445Z,44.70
2019-01-08T11:19:35.309Z,44.70
2019-01-08T11:22:06.680Z,44.80
2019-01-08T11:24:38.341Z,44.80
2019-01-08T11:27:08.774Z,44.80
2019-01-08T11:29:41.029Z,44.90
2019-01-08T11:32:12.931Z,44.90
2019-01-08T11:34:44.648Z,44.90
2019-01-08T11:37:18.743Z,44.90
2019-01-08T11:39:50.203Z,45.00
2019-01-08T11:42:21.340Z,45.10
2019-01-08T11:44:52.445Z,45.00
2019-01-08T11:47:23.764Z,45.10
2019-01-08T11:49:55.416Z,45.10
2019-01-08T11:52:26.668Z,45.10
2019-01-08T11:54:58.387Z,45.20
2019-01-08T11:57:30.062Z,45.20
2019-01-08T12:00:01.648Z,45.20
2019-01-08T12:02:33.729Z,45.20
2019-01-08T12:05:05.444Z,45.20
2019-01-08T12:07:36.762Z,45.20
2019-01-08T12:10:08.216Z,45.30
2019-01-08T12:12:39.069Z,45.40
2019-01-08T12:15:10.597Z,45.40
2019-01-08T12:17:42.402Z,45.40
2019-01-08T12:20:14.014Z,45.40
2019-01-08T12:22:45.656Z,45.50
2019-01-08T12:25:17.204Z,45.50
2019-01-08T12:27:48.436Z,45.50
2019-01-08T12:30:20.671Z,45.50
2019-01-08T12:32:51.647Z,45.50
2019-01-08T12:35:23.392Z,45.50
2019-01-08T12:37:55.176Z,45.60
2019-01-08T12:40:26.824Z,45.90
2019-01-08T12:42:58.340Z,45.60
2019-01-08T12:45:29.931Z,45.70
2019-01-08T12:48:02.144Z,45.60
2019-01-08T12:50:33.397Z,45.70
2019-01-08T12:53:04.945Z,45.70
2019-01-08T12:55:36.039Z,45.70
2019-01-08T12:58:26.012Z,45.80
2019-01-08T13:00:57.271Z,45.70
2019-01-08T13:03:28.687Z,45.70
2019-01-08T13:05:59.386Z,45.80
2019-01-08T13:08:30.499Z,45.80
2019-01-08T13:11:02.168Z,45.80
2019-01-08T13:13:33.697Z,45.90
2019-01-08T13:16:05.579Z,45.80
2019-01-08T13:18:37.229Z,45.80
2019-01-08T13:21:08.799Z,45.90
2019-01-08T13:23:39.920Z,45.90
2019-01-08T13:26:11.330Z,45.90
2019-01-08T13:28:42.522Z,45.90
2019-01-08T13:31:14.517Z,45.90
2019-01-08T13:33:45.701Z,45.90
2019-01-08T13:36:16.999Z,45.90
2019-01-08T13:38:48.473Z,46.00
2019-01-08T13:41:19.458Z,46.00
2019-01-08T13:43:50.052Z,46.00
2019-01-08T13:46:21.770Z,46.00
2019-01-08T13:48:53.572Z,46.00
2019-01-08T13:51:25.213Z,46.00
2019-01-08T13:53:56.618Z,46.10
2019-01-08T13:56:28.450Z,46.20
2019-01-08T13:58:59.547Z,46.20
2019-01-08T14:01:30.992Z,46.20
2019-01-08T14:04:02.649Z,46.30
2019-01-08T14:06:33.490Z,46.20
2019-01-08T14:09:05.905Z,46.20
2019-01-08T14:11:37.794Z,46.30
2019-01-08T14:14:09.190Z,46.20
2019-01-08T14:16:40.457Z,46.00
2019-01-08T14:19:11.217Z,46.20
2019-01-08T14:21:42.128Z,46.20
2019-01-08T14:24:13.838Z,46.20
2019-01-08T14:26:44.869Z,46.20
2019-01-08T14:29:15.894Z,46.20
2019-01-08T14:31:47.509Z,46.30
2019-01-08T14:34:18.086Z,46.20
2019-01-08T14:36:49.570Z,46.20
2019-01-08T14:39:23.846Z,46.30
2019-01-08T14:41:55.073Z,46.20
2019-01-08T14:44:26.850Z,46.20
2019-01-08T14:46:58.566Z,46.20
2019-01-08T14:49:29.895Z,46.20
2019-01-08T14:52:00.747Z,46.20
2019-01-08T14:54:31.817Z,46.20
2019-01-08T14:57:04.511Z,46.30
2019-01-08T14:59:35.861Z,46.30
2019-01-08T15:02:07.352Z,46.20
2019-01-08T15:04:38.842Z,46.30
2019-01-08T15:07:10.688Z,46.20
2019-01-08T15:09:41.927Z,46.20
2019-01-08T15:12:12.788Z,46.20
2019-01-08T15:14:45.079Z,46.20
2019-01-08T15:17:16.878Z,46.30
2019-01-08T15:19:48.224Z,46.20
2019-01-08T15:22:19.655Z,46.10
2019-01-08T15:24:51.037Z,46.10
2019-01-08T15:27:22.285Z,46.20
2019-01-08T15:29:53.588Z,46.10
2019-01-08T15:32:25.287Z,46.10
2019-01-08T15:34:56.646Z,46.10
2019-01-08T15:37:27.844Z,46.20
2019-01-08T15:39:59.697Z,46.10
2019-01-08T15:42:30.555Z,46.30
2019-01-08T15:45:01.056Z,46.50
2019-01-08T15:47:32.781Z,46.10
2019-01-08T15:50:04.883Z,46.10
2019-01-08T15:52:36.597Z,46.10
2019-01-08T15:55:08.138Z,46.10
2019-01-08T15:57:39.798Z,46.10
2019-01-08T16:00:11.675Z,46.20
2019-01-08T16:02:43.157Z,46.20
2019-01-08T16:05:14.655Z,46.20
2019-01-08T16:07:47.343Z,46.20
2019-01-08T16:10:18.906Z,46.10
2019-01-08T16:12:49.397Z,46.10
2019-01-08T16:15:20.316Z,46.20
2019-01-08T16:17:51.756Z,46.20
2019-01-08T16:20:23.018Z,46.00
2019-01-08T16:22:52.480Z,46.10
2019-01-08T16:25:21.990Z,46.10
2019-01-08T16:27:52.697Z,46.10
2019-01-08T16:30:22.177Z,46.10
2019-01-08T16:32:51.583Z,46.20
2019-01-08T16:35:21.030Z,46.20
2019-01-08T16:37:50.540Z,46.10
2019-01-08T16:40:19.949Z,46.10
2019-01-08T16:42:49.526Z,46.00
2019-01-08T16:45:19.016Z,46.10
2019-01-08T16:47:48.445Z,46.10
2019-01-08T16:50:17.894Z,46.10
2019-01-08T16:52:47.494Z,46.10
2019-01-08T16:55:19.908Z,46.10
2019-01-08T16:57:49.307Z,46.10
2019-01-08T17:00:19.841Z,46.10
2019-01-08T17:02:49.413Z,46.20
2019-01-08T17:05:18.820Z,46.20
2019-01-08T17:07:48.224Z,46.20
2019-01-08T17:10:17.653Z,46.20
2019-01-08T17:12:47.060Z,46.20
2019-01-08T17:15:17.785Z,46.20
2019-01-08T17:17:47.183Z,46.20
2019-01-08T17:20:18.242Z,46.10
2019-01-08T17:22:47.824Z,46.20
2019-01-08T17:25:17.236Z,46.20
2019-01-08T17:27:46.743Z,46.20
2019-01-08T17:30:18.028Z,46.30
2019-01-08T17:32:47.621Z,46.30
2019-01-08T17:35:18.825Z,46.20
2019-01-08T17:37:50.040Z,46.30
2019-01-08T17:40:19.469Z,46.20
2019-01-08T17:42:48.880Z,46.20
2019-01-08T17:45:19.430Z,46.30
2019-01-08T17:47:48.912Z,46.30
2019-01-08T17:50:18.320Z,46.30
2019-01-08T17:52:49.777Z,46.30
2019-01-08T17:55:19.257Z,46.30
2019-01-08T17:57:48.659Z,46.40
2019-01-08T18:00:18.084Z,46.40
2019-01-08T18:02:52.224Z,46.40
2019-01-08T18:05:21.661Z,46.40
2019-01-08T18:07:51.145Z,46.40
2019-01-08T18:10:20.653Z,46.40
2019-01-08T18:12:50.090Z,46.40
2019-01-08T18:15:19.693Z,46.40
2019-01-08T18:17:49.112Z,46.40
2019-01-08T18:20:18.551Z,46.50
2019-01-08T18:22:48.069Z,46.50
2019-01-08T18:25:17.832Z,46.50
2019-01-08T18:27:47.268Z,46.50
2019-01-08T18:30:16.698Z,46.50
2019-01-08T18:32:47.210Z,46.50
2019-01-08T18:35:16.615Z,46.50
2019-01-08T18:37:47.096Z,46.50
2019-01-08T18:40:16.613Z,46.50
2019-01-08T18:42:47.211Z,46.50
2019-01-08T18:45:16.702Z,46.60
2019-01-08T18:47:46.312Z,46.60
2019-01-08T18:50:16.009Z,46.60
2019-01-08T18:52:45.465Z,46.60
2019-01-08T18:55:14.933Z,46.60
2019-01-08T18:57:44.450Z,46.60
2019-01-08T19:00:13.916Z,46.70
2019-01-08T19:02:43.353Z,46.70
2019-01-08T19:05:12.793Z,46.60
2019-01-08T19:07:42.268Z,46.70
2019-01-08T19:10:14.203Z,46.70
2019-01-08T19:12:43.741Z,46.70
2019-01-08T19:15:14.114Z,46.70
2019-01-08T19:20:19.041Z,46.70
2019-01-08T19:22:49.569Z,46.80
2019-01-08T19:25:18.991Z,46.80
2019-01-08T19:27:48.651Z,46.80
2019-01-08T19:30:18.124Z,46.80
2019-01-08T19:32:47.826Z,46.80
2019-01-08T19:35:17.454Z,46.80
2019-01-08T19:37:47.961Z,46.80
2019-01-08T19:40:18.460Z,46.80
2019-01-08T19:42:47.903Z,46.80
2019-01-08T19:45:18.429Z,46.80
2019-01-08T19:47:47.827Z,46.80
2019-01-08T19:50:19.561Z,46.80
2019-01-08T19:52:49.842Z,46.80
2019-01-08T19:55:19.332Z,46.80
2019-01-08T19:57:48.764Z,46.90
2019-01-08T20:00:18.175Z,46.90
2019-01-08T20:02:47.688Z,46.80
2019-01-08T20:05:17.092Z,46.90
2019-01-08T20:07:46.522Z,46.80
2019-01-08T20:10:17.471Z,46.90
2019-01-08T20:12:47.036Z,46.90
2019-01-08T20:15:16.564Z,46.80
2019-01-08T20:17:46.042Z,46.90
2019-01-08T20:20:16.465Z,46.90
2019-01-08T20:22:47.160Z,46.90
2019-01-08T20:25:18.063Z,46.90
2019-01-08T20:27:47.564Z,46.90
2019-01-08T20:30:17.076Z,46.90
2019-01-08T20:32:48.292Z,46.90
2019-01-08T20:35:17.722Z,46.90
2019-01-08T20:37:47.217Z,46.90
2019-01-08T20:40:16.633Z,46.90
2019-01-08T20:42:49.342Z,47.00
2019-01-08T20:45:19.949Z,46.90
2019-01-08T20:47:51.120Z,47.00
2019-01-08T20:50:21.655Z,47.00
2019-01-08T20:52:54.324Z,47.00
2019-01-08T20:55:23.753Z,47.00
2019-01-08T20:57:53.253Z,47.10
2019-01-08T21:00:22.705Z,46.90
2019-01-08T21:02:53.624Z,47.10
2019-01-08T21:05:24.840Z,47.00
2019-01-08T21:07:54.526Z,47.00
2019-01-08T21:10:25.504Z,47.00
2019-01-08T21:12:56.721Z,47.00
2019-01-08T21:15:26.233Z,47.00
2019-01-08T21:17:55.652Z,47.10
2019-01-08T21:20:25.076Z,47.10
2019-01-08T21:22:54.516Z,47.00
2019-01-08T21:25:24.000Z,47.00
2019-01-08T21:27:53.408Z,47.00
2019-01-08T21:30:22.833Z,47.00
2019-01-08T21:32:57.488Z,47.00
2019-01-08T21:35:26.916Z,47.30
2019-01-08T21:37:56.348Z,47.00
2019-01-08T21:40:25.761Z,47.10
2019-01-08T21:42:55.245Z,47.10
2019-01-08T21:45:24.749Z,47.10
2019-01-08T21:47:54.224Z,47.10
2019-01-08T21:50:23.685Z,47.10
2019-01-08T21:52:53.102Z,47.10
2019-01-08T21:55:23.614Z,47.30
2019-01-08T21:57:53.187Z,47.10
2019-01-08T22:00:24.152Z,47.10
2019-01-08T22:02:54.783Z,47.10
2019-01-08T22:05:24.224Z,47.10
2019-01-08T22:07:53.787Z,47.10
2019-01-08T22:10:23.237Z,47.10
2019-01-08T22:12:52.700Z,47.10
2019-01-08T22:15:24.359Z,47.10
2019-01-08T22:17:54.972Z,47.10
2019-01-08T22:20:24.773Z,47.10
2019-01-08T22:22:54.176Z,47.10
2019-01-08T22:25:23.965Z,47.10
2019-01-08T22:27:53.421Z,47.10
2019-01-08T22:30:22.895Z,47.10
2019-01-08T22:32:52.567Z,47.10
2019-01-08T22:35:22.144Z,47.00
2019-01-08T22:37:51.561Z,47.10
2019-01-08T22:40:22.801Z,47.10
2019-01-08T22:42:52.452Z,47.10
2019-01-08T22:45:21.865Z,47.10
2019-01-08T22:47:51.272Z,47.10
2019-01-08T22:50:22.512Z,47.00
2019-01-08T22:52:53.577Z,47.00
2019-01-08T22:55:24.868Z,47.00
2019-01-08T22:57:54.377Z,47.00
2019-01-08T23:00:48.514Z,47.10
2019-01-08T23:03:21.860Z,47.10
2019-01-08T23:05:52.829Z,47.00
2019-01-08T23:08:22.288Z,47.00
2019-01-08T23:10:51.724Z,47.00
2019-01-08T23:13:21.202Z,47.00
2019-01-08T23:15:50.728Z,46.90
2019-01-08T23:18:21.161Z,47.00
2019-01-08T23:20:50.564Z,46.90
2019-01-08T23:23:20.065Z,46.90
2019-01-08T23:25:49.483Z,46.90
2019-01-08T23:28:19.056Z,46.90
2019-01-08T23:30:50.072Z,46.90
2019-01-08T23:33:19.591Z,46.90
2019-01-08T23:35:49.000Z,46.90
2019-01-08T23:38:18.405Z,46.90
2019-01-08T23:40:47.828Z,46.90
2019-01-08T23:43:18.353Z,46.90
2019-01-08T23:45:47.904Z,46.90
2019-01-08T23:48:17.299Z,46.90
2019-01-08T23:50:46.718Z,47.00
2019-01-08T23:53:27.489Z,46.90
2019-01-08T23:56:00.340Z,46.90
2019-01-08T23:58:29.771Z,47.40
